createdAt,value
2022-08-11T00:02:37.144Z,0.00
2022-08-11T00:07:36.529Z,0.00
2022-08-11T00:12:37.765Z,0.00
2022-08-11T00:17:39.004Z,0.00
2022-08-11T00:22:40.452Z,0.00
2022-08-11T00:27:40.716Z,0.00
2022-08-11T00:32:40.005Z,0.00
2022-08-11T00:37:41.191Z,0.00
2022-08-11T00:42:42.334Z,0.00
2022-08-11T00:47:43.401Z,0.00
2022-08-11T00:52:44.507Z,0.00
2022-08-11T00:57:45.661Z,0.00
2022-08-11T01:02:46.815Z,0.00
2022-08-11T01:08:01.662Z,0.00
2022-08-11T01:12:49.190Z,0.00
2022-08-11T01:17:48.663Z,0.00
2022-08-11T01:22:48.146Z,0.00
2022-08-11T01:27:47.647Z,0.00
2022-08-11T01:32:47.102Z,0.00
2022-08-11T01:37:46.673Z,0.00
2022-08-11T01:42:47.076Z,0.00
2022-08-11T01:47:53.026Z,0.00
2022-08-11T01:52:46.871Z,0.00
2022-08-11T01:57:48.439Z,0.00
2022-08-11T02:02:46.050Z,0.00
2022-08-11T02:07:45.558Z,0.00
2022-08-11T02:12:52.212Z,0.00
2022-08-11T02:17:45.399Z,0.00
2022-08-11T02:22:44.874Z,0.00
2022-08-11T02:27:44.330Z,0.00
2022-08-11T02:32:43.844Z,0.00
2022-08-11T02:37:44.314Z,0.00
2022-08-11T02:42:44.275Z,0.00
2022-08-11T02:47:43.785Z,0.00
2022-08-11T02:52:45.275Z,0.00
2022-08-11T02:57:44.760Z,0.00
2022-08-11T03:02:45.075Z,0.00
2022-08-11T03:07:44.187Z,0.00
2022-08-11T03:12:48.022Z,0.00
2022-08-11T03:17:45.305Z,0.00
2022-08-11T03:22:46.539Z,0.00
2022-08-11T03:27:47.669Z,0.00
2022-08-11T03:32:48.781Z,0.00
2022-08-11T03:37:49.961Z,4.00
2022-08-11T03:42:51.147Z,8.00
2022-08-11T03:47:53.447Z,12.00
2022-08-11T03:52:50.656Z,24.00
2022-08-11T03:57:50.833Z,56.00
2022-08-11T04:02:52.017Z,104.00
2022-08-11T04:07:53.176Z,172.00
2022-08-11T04:12:55.440Z,264.00
2022-08-11T04:17:56.873Z,384.00
2022-08-11T04:22:54.055Z,564.00
2022-08-11T04:27:55.212Z,824.00
2022-08-11T04:32:54.840Z,1092.00
2022-08-11T04:37:55.985Z,1380.00
2022-08-11T04:42:57.168Z,1656.00
2022-08-11T04:48:03.505Z,1952.00
2022-08-11T04:52:58.321Z,2200.00
2022-08-11T04:57:59.498Z,2440.00
2022-08-11T05:03:00.679Z,2752.00
2022-08-11T05:08:01.832Z,3036.00
2022-08-11T05:13:03.106Z,3252.00
2022-08-11T05:18:04.272Z,3424.00
2022-08-11T05:23:05.472Z,3612.00
2022-08-11T05:28:06.727Z,3780.00
2022-08-11T05:33:07.983Z,3976.00
2022-08-11T05:38:09.170Z,4104.00
2022-08-11T05:43:11.301Z,4216.00
2022-08-11T05:48:10.458Z,4268.00
2022-08-11T05:53:11.899Z,4388.00
2022-08-11T05:58:12.294Z,4524.00
2022-08-11T06:03:12.444Z,4644.00
2022-08-11T06:08:11.582Z,4772.00
2022-08-11T06:13:15.701Z,4876.00
2022-08-11T06:18:12.887Z,4976.00
2022-08-11T06:23:13.990Z,5044.00
2022-08-11T06:28:20.362Z,5108.00
2022-08-11T06:33:15.113Z,5176.00
2022-08-11T06:38:17.247Z,5252.00
2022-08-11T06:43:17.483Z,5308.00
2022-08-11T06:48:17.657Z,5364.00
2022-08-11T06:53:16.838Z,5420.00
2022-08-11T06:58:17.951Z,5472.00
2022-08-11T07:03:19.085Z,5532.00
2022-08-11T07:08:34.273Z,5568.00
2022-08-11T07:13:44.226Z,5608.00
2022-08-11T07:18:20.148Z,5640.00
2022-08-11T07:23:21.277Z,5692.00
2022-08-11T07:28:22.411Z,5720.00
2022-08-11T07:34:06.409Z,5748.00
2022-08-11T07:38:25.492Z,5756.00
2022-08-11T07:43:24.783Z,5760.00
2022-08-11T07:48:25.894Z,5780.00
2022-08-11T07:53:27.033Z,5812.00
2022-08-11T07:58:28.130Z,5844.00
2022-08-11T08:03:29.758Z,5880.00
2022-08-11T08:08:28.894Z,5916.00
2022-08-11T08:13:30.061Z,5944.00
2022-08-11T08:18:31.193Z,5956.00
2022-08-11T08:23:32.287Z,5996.00
2022-08-11T08:28:33.462Z,6008.00
2022-08-11T08:33:34.565Z,6040.00
2022-08-11T08:38:34.694Z,6068.00
2022-08-11T08:43:48.543Z,6104.00
2022-08-11T08:48:36.861Z,6160.00
2022-08-11T08:53:37.066Z,6180.00
2022-08-11T08:58:36.191Z,6248.00
2022-08-11T09:04:02.862Z,6220.00
2022-08-11T09:08:39.260Z,6320.00
2022-08-11T09:13:38.446Z,6392.00
2022-08-11T09:18:40.604Z,6080.00
2022-08-11T09:24:08.831Z,6048.00
2022-08-11T09:28:39.859Z,6160.00
2022-08-11T09:33:41.265Z,5956.00
2022-08-11T09:38:47.369Z,6068.00
2022-08-11T09:43:43.072Z,6160.00
2022-08-11T09:48:44.204Z,6160.00
2022-08-11T09:53:47.061Z,6156.00
2022-08-11T09:58:46.282Z,6172.00
2022-08-11T10:03:47.371Z,6152.00
2022-08-11T10:08:48.517Z,6164.00
2022-08-11T10:14:31.122Z,6196.00
2022-08-11T10:18:50.609Z,6216.00
2022-08-11T10:24:01.096Z,6212.00
2022-08-11T10:29:10.014Z,6164.00
2022-08-11T10:33:59.126Z,6172.00
2022-08-11T10:38:49.627Z,6156.00
2022-08-11T10:44:02.375Z,6176.00
2022-08-11T10:48:50.782Z,6208.00
2022-08-11T10:53:52.902Z,6208.00
2022-08-11T10:58:52.011Z,6224.00
2022-08-11T11:03:53.129Z,6224.00
2022-08-11T11:08:57.706Z,6232.00
2022-08-11T11:13:57.273Z,6232.00
2022-08-11T11:19:00.956Z,6248.00
2022-08-11T11:23:56.516Z,6252.00
2022-08-11T11:28:57.651Z,6488.00
2022-08-11T11:34:12.000Z,6484.00
2022-08-11T11:39:00.696Z,6476.00
2022-08-11T11:44:01.456Z,6504.00
2022-08-11T11:49:01.724Z,6468.00
2022-08-11T11:54:01.530Z,6484.00
2022-08-11T11:59:04.665Z,6484.00
2022-08-11T12:04:04.792Z,6492.00
2022-08-11T12:09:03.929Z,6504.00
2022-08-11T12:14:10.433Z,6528.00
2022-08-11T12:19:07.055Z,6552.00
2022-08-11T12:24:07.182Z,6544.00
2022-08-11T12:29:07.281Z,6568.00
2022-08-11T12:34:07.418Z,6592.00
2022-08-11T12:39:23.020Z,6624.00
2022-08-11T12:44:08.543Z,6644.00
2022-08-11T12:49:07.658Z,6676.00
2022-08-11T12:54:08.865Z,6720.00
2022-08-11T12:59:09.959Z,6704.00
2022-08-11T13:04:11.076Z,6716.00
2022-08-11T13:09:12.240Z,6716.00
2022-08-11T13:14:18.335Z,6680.00
2022-08-11T13:19:13.485Z,6748.00
2022-08-11T13:24:14.585Z,6708.00
2022-08-11T13:29:15.704Z,6740.00
2022-08-11T13:34:16.883Z,6692.00
2022-08-11T13:39:18.028Z,6668.00
2022-08-11T13:44:26.020Z,6620.00
2022-08-11T13:49:20.369Z,6584.00
2022-08-11T13:54:19.449Z,6572.00
2022-08-11T13:59:23.048Z,6544.00
2022-08-11T14:04:30.333Z,6516.00
2022-08-11T14:09:21.991Z,6520.00
2022-08-11T14:14:24.125Z,6484.00
2022-08-11T14:19:23.225Z,6560.00
2022-08-11T14:24:25.339Z,6636.00
2022-08-11T14:29:24.455Z,6760.00
2022-08-11T14:34:26.578Z,6956.00
2022-08-11T14:39:25.729Z,7740.00
2022-08-11T14:44:27.851Z,7904.00
2022-08-11T14:49:27.972Z,7812.00
2022-08-11T14:54:28.097Z,7408.00
2022-08-11T14:59:27.202Z,7640.00
2022-08-11T15:04:36.342Z,7736.00
2022-08-11T15:09:28.068Z,7840.00
2022-08-11T15:14:31.189Z,7956.00
2022-08-11T15:19:40.271Z,8144.00
2022-08-11T15:24:30.769Z,8380.00
2022-08-11T15:29:30.265Z,8604.00
2022-08-11T15:34:31.379Z,8756.00
2022-08-11T15:39:32.507Z,8724.00
2022-08-11T15:45:01.178Z,8608.00
2022-08-11T15:50:11.154Z,8224.00
2022-08-11T15:54:35.699Z,7832.00
2022-08-11T15:59:43.279Z,8312.00
2022-08-11T16:04:36.805Z,8296.00
2022-08-11T16:09:41.352Z,8224.00
2022-08-11T16:14:36.903Z,8544.00
2022-08-11T16:19:36.077Z,8632.00
2022-08-11T16:27:02.079Z,8068.00
2022-08-11T16:29:37.194Z,7788.00
2022-08-11T16:34:38.347Z,8108.00
2022-08-11T16:39:39.533Z,7688.00
2022-08-11T16:44:40.733Z,5700.00
2022-08-11T16:49:47.130Z,6172.00
2022-08-11T16:54:44.391Z,6876.00
2022-08-11T16:59:40.852Z,5072.00
2022-08-11T17:04:40.386Z,5232.00
2022-08-11T17:09:42.589Z,4864.00
2022-08-11T17:14:42.771Z,4916.00
2022-08-11T17:20:38.535Z,4004.00
2022-08-11T17:24:41.897Z,4088.00
2022-08-11T17:29:53.540Z,3576.00
2022-08-11T17:34:44.064Z,3764.00
2022-08-11T17:39:45.197Z,3240.00
2022-08-11T17:44:46.304Z,3276.00
2022-08-11T17:49:48.447Z,2920.00
2022-08-11T17:54:49.560Z,2384.00
2022-08-11T17:59:49.488Z,1936.00
2022-08-11T18:04:48.612Z,1648.00
2022-08-11T18:09:49.719Z,1192.00
2022-08-11T18:14:50.879Z,848.00
2022-08-11T18:19:52.020Z,660.00
2022-08-11T18:24:53.234Z,464.00
2022-08-11T18:29:54.879Z,320.00
2022-08-11T18:34:55.987Z,216.00
2022-08-11T18:39:56.031Z,140.00
2022-08-11T18:44:53.995Z,88.00
2022-08-11T18:50:02.001Z,48.00
2022-08-11T18:54:56.077Z,24.00
2022-08-11T18:59:55.181Z,12.00
2022-08-11T19:04:56.361Z,8.00
2022-08-11T19:09:58.537Z,0.00
2022-08-11T19:14:57.692Z,4.00
2022-08-11T19:19:58.925Z,0.00
2022-08-11T19:25:01.105Z,0.00
2022-08-11T19:30:11.930Z,0.00
2022-08-11T19:35:01.186Z,0.00
2022-08-11T19:40:01.430Z,0.00
2022-08-11T19:45:01.729Z,0.00
2022-08-11T19:50:00.820Z,0.00
2022-08-11T19:55:02.976Z,0.00
2022-08-11T20:00:03.650Z,0.00
2022-08-11T20:05:02.850Z,0.00
2022-08-11T20:10:05.873Z,0.00
2022-08-11T20:15:04.797Z,0.00
2022-08-11T20:20:04.083Z,0.00
2022-08-11T20:25:05.207Z,0.00
2022-08-11T20:30:06.369Z,0.00
2022-08-11T20:35:07.563Z,0.00
2022-08-11T20:40:09.761Z,0.00
2022-08-11T20:45:08.874Z,0.00
2022-08-11T20:50:09.965Z,0.00
2022-08-11T20:55:10.858Z,0.00
2022-08-11T21:00:10.827Z,0.00
2022-08-11T21:05:13.096Z,0.00
2022-08-11T21:10:15.855Z,0.00
2022-08-11T21:15:11.918Z,0.00
2022-08-11T21:20:18.420Z,0.00
2022-08-11T21:25:15.125Z,0.00
2022-08-11T21:30:14.266Z,0.00
2022-08-11T21:35:15.408Z,0.00
2022-08-11T21:40:17.376Z,0.00
2022-08-11T21:45:15.806Z,0.00
2022-08-11T21:50:16.984Z,0.00
2022-08-11T21:55:18.535Z,0.00
2022-08-11T22:00:18.691Z,0.00
2022-08-11T22:05:19.221Z,0.00
2022-08-11T22:10:41.008Z,0.00
2022-08-11T22:15:18.282Z,0.00
2022-08-11T22:20:19.402Z,0.00
2022-08-11T22:25:20.660Z,0.00
2022-08-11T22:30:21.780Z,0.00
2022-08-11T22:35:22.874Z,0.00
2022-08-11T22:40:23.977Z,0.00
2022-08-11T22:45:26.156Z,0.00
2022-08-11T22:50:26.243Z,0.00
2022-08-11T22:55:25.347Z,0.00
2022-08-11T23:00:30.288Z,0.00
2022-08-11T23:05:27.721Z,0.00
2022-08-11T23:10:29.859Z,0.00
2022-08-11T23:15:29.980Z,0.00
2022-08-11T23:20:33.457Z,0.00
2022-08-11T23:25:29.014Z,0.00
2022-08-11T23:30:30.408Z,0.00
2022-08-11T23:35:40.193Z,0.00
2022-08-11T23:40:31.706Z,0.00
2022-08-11T23:45:32.877Z,0.00
2022-08-11T23:50:33.965Z,0.00
2022-08-11T23:55:35.161Z,0.00
